sensor_id;sensor_type;location;lat;lon;timestamp;P1;durP1;ratioP1;P2;durP2;ratioP2
34136;SDS011;20414;50.860;4.382;2022-10-16T00:01:41;4.65;;;2.83;;
34136;SDS011;20414;50.860;4.382;2022-10-16T00:04:07;4.07;;;2.80;;
34136;SDS011;20414;50.860;4.382;2022-10-16T00:06:33;5.97;;;3.20;;
34136;SDS011;20414;50.860;4.382;2022-10-16T00:08:59;3.72;;;2.88;;
34136;SDS011;20414;50.860;4.382;2022-10-16T00:11:29;4.90;;;2.90;;
34136;SDS011;20414;50.860;4.382;2022-10-16T00:13:59;4.15;;;2.70;;
34136;SDS011;20414;50.860;4.382;2022-10-16T00:16:25;4.65;;;2.95;;
34136;SDS011;20414;50.860;4.382;2022-10-16T00:18:52;3.90;;;2.80;;
34136;SDS011;20414;50.860;4.382;2022-10-16T00:21:19;3.60;;;2.53;;
34136;SDS011;20414;50.860;4.382;2022-10-16T00:23:50;3.42;;;2.67;;
34136;SDS011;20414;50.860;4.382;2022-10-16T00:26:17;4.25;;;2.78;;
34136;SDS011;20414;50.860;4.382;2022-10-16T00:28:49;3.70;;;2.50;;
34136;SDS011;20414;50.860;4.382;2022-10-16T00:31:16;5.72;;;3.15;;
34136;SDS011;20414;50.860;4.382;2022-10-16T00:33:43;4.05;;;2.60;;
34136;SDS011;20414;50.860;4.382;2022-10-16T00:36:12;3.60;;;2.67;;
34136;SDS011;20414;50.860;4.382;2022-10-16T00:38:40;3.60;;;2.40;;
34136;SDS011;20414;50.860;4.382;2022-10-16T00:41:07;4.07;;;2.50;;
34136;SDS011;20414;50.860;4.382;2022-10-16T00:46:11;2.97;;;2.20;;
34136;SDS011;20414;50.860;4.382;2022-10-16T00:48:38;3.95;;;2.63;;
34136;SDS011;20414;50.860;4.382;2022-10-16T00:51:04;3.40;;;2.50;;
34136;SDS011;20414;50.860;4.382;2022-10-16T00:53:32;3.58;;;2.70;;
34136;SDS011;20414;50.860;4.382;2022-10-16T00:55:58;4.43;;;2.40;;
34136;SDS011;20414;50.860;4.382;2022-10-16T00:58:24;3.75;;;2.42;;
34136;SDS011;20414;50.860;4.382;2022-10-16T01:00:50;2.78;;;2.33;;
34136;SDS011;20414;50.860;4.382;2022-10-16T01:03:29;3.65;;;2.70;;
34136;SDS011;20414;50.860;4.382;2022-10-16T01:12:05;3.63;;;2.35;;
34136;SDS011;20414;50.860;4.382;2022-10-16T01:20:12;3.75;;;2.38;;
34136;SDS011;20414;50.860;4.382;2022-10-16T01:28:19;2.60;;;1.80;;
34136;SDS011;20414;50.860;4.382;2022-10-16T01:30:50;3.00;;;2.22;;
34136;SDS011;20414;50.860;4.382;2022-10-16T01:33:28;2.53;;;2.00;;
34136;SDS011;20414;50.860;4.382;2022-10-16T01:36:04;2.70;;;2.10;;
34136;SDS011;20414;50.860;4.382;2022-10-16T01:38:36;2.83;;;1.90;;
34136;SDS011;20414;50.860;4.382;2022-10-16T01:41:15;2.83;;;1.60;;
34136;SDS011;20414;50.860;4.382;2022-10-16T01:43:49;2.80;;;1.92;;
34136;SDS011;20414;50.860;4.382;2022-10-16T01:46:27;3.53;;;1.90;;
34136;SDS011;20414;50.860;4.382;2022-10-16T01:48:55;2.78;;;2.00;;
34136;SDS011;20414;50.860;4.382;2022-10-16T01:51:21;2.78;;;2.08;;
34136;SDS011;20414;50.860;4.382;2022-10-16T01:53:50;2.83;;;1.92;;
34136;SDS011;20414;50.860;4.382;2022-10-16T01:56:19;3.15;;;2.08;;
34136;SDS011;20414;50.860;4.382;2022-10-16T02:01:34;2.67;;;1.83;;
34136;SDS011;20414;50.860;4.382;2022-10-16T02:04:04;2.45;;;1.90;;
34136;SDS011;20414;50.860;4.382;2022-10-16T02:06:56;2.83;;;1.85;;
34136;SDS011;20414;50.860;4.382;2022-10-16T02:09:22;3.13;;;1.90;;
34136;SDS011;20414;50.860;4.382;2022-10-16T02:11:47;2.47;;;1.80;;
34136;SDS011;20414;50.860;4.382;2022-10-16T02:14:15;2.70;;;1.80;;
34136;SDS011;20414;50.860;4.382;2022-10-16T02:16:42;2.08;;;1.60;;
34136;SDS011;20414;50.860;4.382;2022-10-16T02:19:09;3.25;;;1.77;;
34136;SDS011;20414;50.860;4.382;2022-10-16T02:29:55;2.25;;;1.80;;
34136;SDS011;20414;50.860;4.382;2022-10-16T02:32:32;2.13;;;1.70;;
34136;SDS011;20414;50.860;4.382;2022-10-16T02:35:01;3.30;;;1.90;;
34136;SDS011;20414;50.860;4.382;2022-10-16T02:37:27;2.28;;;1.40;;
34136;SDS011;20414;50.860;4.382;2022-10-16T02:39:54;2.08;;;1.67;;
34136;SDS011;20414;50.860;4.382;2022-10-16T02:42:27;2.28;;;1.55;;
34136;SDS011;20414;50.860;4.382;2022-10-16T02:45:04;2.03;;;1.60;;
34136;SDS011;20414;50.860;4.382;2022-10-16T02:47:31;2.10;;;1.50;;
34136;SDS011;20414;50.860;4.382;2022-10-16T02:49:57;3.03;;;1.42;;
34136;SDS011;20414;50.860;4.382;2022-10-16T02:52:22;2.10;;;1.70;;
34136;SDS011;20414;50.860;4.382;2022-10-16T02:54:48;2.15;;;1.70;;
34136;SDS011;20414;50.860;4.382;2022-10-16T02:57:14;2.47;;;1.80;;
34136;SDS011;20414;50.860;4.382;2022-10-16T02:59:39;1.50;;;1.30;;
34136;SDS011;20414;50.860;4.382;2022-10-16T03:02:05;2.42;;;1.50;;
34136;SDS011;20414;50.860;4.382;2022-10-16T03:04:30;2.28;;;1.67;;
34136;SDS011;20414;50.860;4.382;2022-10-16T03:06:56;2.25;;;1.55;;
34136;SDS011;20414;50.860;4.382;2022-10-16T03:09:22;1.73;;;1.45;;
34136;SDS011;20414;50.860;4.382;2022-10-16T03:11:47;2.10;;;1.70;;
34136;SDS011;20414;50.860;4.382;2022-10-16T03:14:13;1.67;;;1.15;;
34136;SDS011;20414;50.860;4.382;2022-10-16T03:16:39;1.85;;;1.23;;
34136;SDS011;20414;50.860;4.382;2022-10-16T03:19:04;3.03;;;1.58;;
34136;SDS011;20414;50.860;4.382;2022-10-16T03:21:30;2.13;;;1.42;;
34136;SDS011;20414;50.860;4.382;2022-10-16T03:23:56;1.70;;;1.20;;
34136;SDS011;20414;50.860;4.382;2022-10-16T03:26:21;2.78;;;1.45;;
34136;SDS011;20414;50.860;4.382;2022-10-16T03:28:47;2.35;;;1.23;;
34136;SDS011;20414;50.860;4.382;2022-10-16T03:31:13;2.17;;;1.50;;
34136;SDS011;20414;50.860;4.382;2022-10-16T03:33:38;1.77;;;1.38;;
34136;SDS011;20414;50.860;4.382;2022-10-16T03:36:04;2.20;;;1.50;;
34136;SDS011;20414;50.860;4.382;2022-10-16T03:38:30;1.80;;;1.30;;
34136;SDS011;20414;50.860;4.382;2022-10-16T03:40:56;2.08;;;1.60;;
34136;SDS011;20414;50.860;4.382;2022-10-16T03:43:22;1.40;;;1.17;;
34136;SDS011;20414;50.860;4.382;2022-10-16T03:45:49;1.40;;;1.30;;
34136;SDS011;20414;50.860;4.382;2022-10-16T03:48:17;1.70;;;1.35;;
34136;SDS011;20414;50.860;4.382;2022-10-16T03:50:44;1.90;;;1.40;;
34136;SDS011;20414;50.860;4.382;2022-10-16T03:53:09;1.60;;;1.30;;
34136;SDS011;20414;50.860;4.382;2022-10-16T03:55:36;1.73;;;1.30;;
34136;SDS011;20414;50.860;4.382;2022-10-16T03:58:02;2.20;;;1.23;;
34136;SDS011;20414;50.860;4.382;2022-10-16T04:00:28;1.70;;;1.30;;
34136;SDS011;20414;50.860;4.382;2022-10-16T04:02:53;1.80;;;1.30;;
34136;SDS011;20414;50.860;4.382;2022-10-16T04:05:19;1.27;;;1.00;;
34136;SDS011;20414;50.860;4.382;2022-10-16T04:07:45;1.83;;;1.27;;
34136;SDS011;20414;50.860;4.382;2022-10-16T04:10:11;2.50;;;1.45;;
34136;SDS011;20414;50.860;4.382;2022-10-16T04:12:36;1.38;;;1.00;;
34136;SDS011;20414;50.860;4.382;2022-10-16T04:15:02;1.73;;;1.20;;
34136;SDS011;20414;50.860;4.382;2022-10-16T04:17:28;1.42;;;1.10;;
34136;SDS011;20414;50.860;4.382;2022-10-16T04:19:53;1.52;;;1.08;;
34136;SDS011;20414;50.860;4.382;2022-10-16T04:22:19;1.23;;;1.10;;
34136;SDS011;20414;50.860;4.382;2022-10-16T04:24:46;1.20;;;1.00;;
34136;SDS011;20414;50.860;4.382;2022-10-16T04:27:11;1.50;;;1.20;;
34136;SDS011;20414;50.860;4.382;2022-10-16T04:29:37;1.35;;;1.10;;
34136;SDS011;20414;50.860;4.382;2022-10-16T04:32:02;1.40;;;1.10;;
34136;SDS011;20414;50.860;4.382;2022-10-16T04:34:28;1.40;;;1.00;;
34136;SDS011;20414;50.860;4.382;2022-10-16T04:36:54;1.70;;;1.10;;
34136;SDS011;20414;50.860;4.382;2022-10-16T04:39:19;1.33;;;1.08;;
34136;SDS011;20414;50.860;4.382;2022-10-16T04:41:45;1.00;;;0.90;;
34136;SDS011;20414;50.860;4.382;2022-10-16T04:44:11;1.58;;;1.10;;
34136;SDS011;20414;50.860;4.382;2022-10-16T04:46:36;1.50;;;1.00;;
34136;SDS011;20414;50.860;4.382;2022-10-16T04:49:02;1.20;;;0.90;;
34136;SDS011;20414;50.860;4.382;2022-10-16T04:51:28;1.98;;;1.10;;
34136;SDS011;20414;50.860;4.382;2022-10-16T04:53:54;1.10;;;0.88;;
34136;SDS011;20414;50.860;4.382;2022-10-16T04:56:20;1.40;;;1.08;;
34136;SDS011;20414;50.860;4.382;2022-10-16T04:58:46;1.33;;;1.00;;
34136;SDS011;20414;50.860;4.382;2022-10-16T05:01:12;1.42;;;1.00;;
34136;SDS011;20414;50.860;4.382;2022-10-16T05:03:38;1.50;;;1.02;;
34136;SDS011;20414;50.860;4.382;2022-10-16T05:06:07;1.70;;;1.10;;
34136;SDS011;20414;50.860;4.382;2022-10-16T05:08:33;1.60;;;0.80;;
34136;SDS011;20414;50.860;4.382;2022-10-16T05:10:58;1.35;;;1.00;;
34136;SDS011;20414;50.860;4.382;2022-10-16T05:13:24;1.15;;;1.05;;
34136;SDS011;20414;50.860;4.382;2022-10-16T05:15:50;1.00;;;0.80;;
34136;SDS011;20414;50.860;4.382;2022-10-16T05:18:16;2.00;;;1.10;;
34136;SDS011;20414;50.860;4.382;2022-10-16T05:20:41;1.20;;;0.80;;
34136;SDS011;20414;50.860;4.382;2022-10-16T05:23:07;1.13;;;1.00;;
34136;SDS011;20414;50.860;4.382;2022-10-16T05:25:35;2.17;;;1.00;;
34136;SDS011;20414;50.860;4.382;2022-10-16T05:28:01;1.00;;;0.80;;
34136;SDS011;20414;50.860;4.382;2022-10-16T05:30:27;1.00;;;0.90;;
34136;SDS011;20414;50.860;4.382;2022-10-16T05:32:53;1.48;;;1.02;;
34136;SDS011;20414;50.860;4.382;2022-10-16T05:35:19;1.20;;;1.00;;
34136;SDS011;20414;50.860;4.382;2022-10-16T05:37:45;1.35;;;0.90;;
34136;SDS011;20414;50.860;4.382;2022-10-16T05:40:11;1.42;;;1.00;;
34136;SDS011;20414;50.860;4.382;2022-10-16T05:42:38;1.27;;;0.85;;
34136;SDS011;20414;50.860;4.382;2022-10-16T05:45:04;1.10;;;0.80;;
34136;SDS011;20414;50.860;4.382;2022-10-16T05:47:31;1.33;;;0.88;;
34136;SDS011;20414;50.860;4.382;2022-10-16T05:49:57;1.00;;;0.75;;
34136;SDS011;20414;50.860;4.382;2022-10-16T05:52:22;1.00;;;0.90;;
34136;SDS011;20414;50.860;4.382;2022-10-16T05:54:48;1.13;;;1.02;;
34136;SDS011;20414;50.860;4.382;2022-10-16T05:57:14;1.20;;;0.88;;
34136;SDS011;20414;50.860;4.382;2022-10-16T05:59:40;1.50;;;0.93;;
34136;SDS011;20414;50.860;4.382;2022-10-16T06:02:07;1.27;;;0.90;;
34136;SDS011;20414;50.860;4.382;2022-10-16T06:04:37;1.48;;;0.98;;
34136;SDS011;20414;50.860;4.382;2022-10-16T06:07:03;0.80;;;0.80;;
34136;SDS011;20414;50.860;4.382;2022-10-16T06:09:28;1.00;;;0.90;;
34136;SDS011;20414;50.860;4.382;2022-10-16T06:11:54;1.77;;;0.95;;
34136;SDS011;20414;50.860;4.382;2022-10-16T06:14:20;1.35;;;1.00;;
34136;SDS011;20414;50.860;4.382;2022-10-16T06:16:45;1.95;;;1.02;;
34136;SDS011;20414;50.860;4.382;2022-10-16T06:19:11;1.55;;;0.90;;
34136;SDS011;20414;50.860;4.382;2022-10-16T06:21:36;0.75;;;0.70;;
34136;SDS011;20414;50.860;4.382;2022-10-16T06:24:02;1.38;;;0.85;;
34136;SDS011;20414;50.860;4.382;2022-10-16T06:26:29;0.93;;;0.65;;
34136;SDS011;20414;50.860;4.382;2022-10-16T06:28:56;1.35;;;0.88;;
34136;SDS011;20414;50.860;4.382;2022-10-16T06:31:23;1.20;;;0.90;;
34136;SDS011;20414;50.860;4.382;2022-10-16T06:33:52;1.02;;;0.80;;
34136;SDS011;20414;50.860;4.382;2022-10-16T06:36:19;2.33;;;0.90;;
34136;SDS011;20414;50.860;4.382;2022-10-16T06:38:45;1.60;;;1.00;;
34136;SDS011;20414;50.860;4.382;2022-10-16T06:41:12;1.02;;;0.90;;
34136;SDS011;20414;50.860;4.382;2022-10-16T06:43:39;0.80;;;0.75;;
34136;SDS011;20414;50.860;4.382;2022-10-16T06:46:06;1.52;;;0.77;;
34136;SDS011;20414;50.860;4.382;2022-10-16T06:48:34;1.50;;;1.00;;
34136;SDS011;20414;50.860;4.382;2022-10-16T06:51:00;0.68;;;0.68;;
34136;SDS011;20414;50.860;4.382;2022-10-16T06:53:28;1.08;;;0.77;;
34136;SDS011;20414;50.860;4.382;2022-10-16T06:55:55;0.82;;;0.70;;
34136;SDS011;20414;50.860;4.382;2022-10-16T06:58:21;1.02;;;0.80;;
34136;SDS011;20414;50.860;4.382;2022-10-16T07:00:47;1.23;;;0.80;;
34136;SDS011;20414;50.860;4.382;2022-10-16T07:03:13;0.77;;;0.70;;
34136;SDS011;20414;50.860;4.382;2022-10-16T07:05:42;1.10;;;0.80;;
34136;SDS011;20414;50.860;4.382;2022-10-16T07:08:08;0.60;;;0.60;;
34136;SDS011;20414;50.860;4.382;2022-10-16T07:10:34;1.92;;;0.90;;
34136;SDS011;20414;50.860;4.382;2022-10-16T07:13:00;0.90;;;0.60;;
34136;SDS011;20414;50.860;4.382;2022-10-16T07:15:26;1.02;;;0.60;;
34136;SDS011;20414;50.860;4.382;2022-10-16T07:17:52;1.13;;;0.70;;
34136;SDS011;20414;50.860;4.382;2022-10-16T07:20:18;0.75;;;0.60;;
34136;SDS011;20414;50.860;4.382;2022-10-16T07:22:44;0.80;;;0.50;;
34136;SDS011;20414;50.860;4.382;2022-10-16T07:25:10;0.90;;;0.63;;
34136;SDS011;20414;50.860;4.382;2022-10-16T07:27:36;0.82;;;0.73;;
34136;SDS011;20414;50.860;4.382;2022-10-16T07:30:02;0.68;;;0.68;;
34136;SDS011;20414;50.860;4.382;2022-10-16T07:32:29;1.15;;;0.60;;
34136;SDS011;20414;50.860;4.382;2022-10-16T07:34:54;1.05;;;0.75;;
34136;SDS011;20414;50.860;4.382;2022-10-16T07:37:20;0.80;;;0.70;;
34136;SDS011;20414;50.860;4.382;2022-10-16T07:39:47;1.67;;;0.57;;
34136;SDS011;20414;50.860;4.382;2022-10-16T07:42:13;0.80;;;0.70;;
34136;SDS011;20414;50.860;4.382;2022-10-16T07:44:38;1.13;;;0.60;;
34136;SDS011;20414;50.860;4.382;2022-10-16T07:47:05;1.08;;;0.70;;
34136;SDS011;20414;50.860;4.382;2022-10-16T07:49:31;0.77;;;0.70;;
34136;SDS011;20414;50.860;4.382;2022-10-16T07:51:56;0.70;;;0.70;;
34136;SDS011;20414;50.860;4.382;2022-10-16T07:54:22;1.20;;;0.50;;
34136;SDS011;20414;50.860;4.382;2022-10-16T07:56:47;1.13;;;0.70;;
34136;SDS011;20414;50.860;4.382;2022-10-16T07:59:13;0.73;;;0.60;;
34136;SDS011;20414;50.860;4.382;2022-10-16T08:01:39;0.90;;;0.57;;
34136;SDS011;20414;50.860;4.382;2022-10-16T08:04:05;0.65;;;0.60;;
34136;SDS011;20414;50.860;4.382;2022-10-16T08:06:34;0.50;;;0.50;;
34136;SDS011;20414;50.860;4.382;2022-10-16T08:09:01;0.73;;;0.50;;
34136;SDS011;20414;50.860;4.382;2022-10-16T08:11:28;0.82;;;0.50;;
34136;SDS011;20414;50.860;4.382;2022-10-16T08:13:54;1.95;;;0.73;;
34136;SDS011;20414;50.860;4.382;2022-10-16T08:16:20;0.57;;;0.50;;
34136;SDS011;20414;50.860;4.382;2022-10-16T08:18:45;1.00;;;0.70;;
34136;SDS011;20414;50.860;4.382;2022-10-16T08:21:15;1.80;;;0.60;;
34136;SDS011;20414;50.860;4.382;2022-10-16T08:23:43;0.50;;;0.50;;
34136;SDS011;20414;50.860;4.382;2022-10-16T08:26:09;0.95;;;0.60;;
34136;SDS011;20414;50.860;4.382;2022-10-16T08:28:36;0.82;;;0.68;;
34136;SDS011;20414;50.860;4.382;2022-10-16T08:31:15;0.55;;;0.50;;
34136;SDS011;20414;50.860;4.382;2022-10-16T08:33:42;0.90;;;0.53;;
34136;SDS011;20414;50.860;4.382;2022-10-16T08:36:10;1.70;;;0.80;;
34136;SDS011;20414;50.860;4.382;2022-10-16T08:38:36;0.30;;;0.30;;
34136;SDS011;20414;50.860;4.382;2022-10-16T08:49:25;1.10;;;0.57;;
34136;SDS011;20414;50.860;4.382;2022-10-16T08:51:52;0.80;;;0.63;;
34136;SDS011;20414;50.860;4.382;2022-10-16T08:57:09;0.60;;;0.40;;
34136;SDS011;20414;50.860;4.382;2022-10-16T08:59:37;0.63;;;0.60;;
34136;SDS011;20414;50.860;4.382;2022-10-16T09:02:02;0.60;;;0.50;;
34136;SDS011;20414;50.860;4.382;2022-10-16T09:10:47;0.65;;;0.50;;
34136;SDS011;20414;50.860;4.382;2022-10-16T09:16:36;0.52;;;0.50;;
34136;SDS011;20414;50.860;4.382;2022-10-16T09:22:02;1.13;;;0.73;;
34136;SDS011;20414;50.860;4.382;2022-10-16T09:24:39;0.55;;;0.40;;
34136;SDS011;20414;50.860;4.382;2022-10-16T09:27:04;0.88;;;0.50;;
34136;SDS011;20414;50.860;4.382;2022-10-16T09:29:33;0.90;;;0.52;;
34136;SDS011;20414;50.860;4.382;2022-10-16T09:32:05;0.98;;;0.57;;
34136;SDS011;20414;50.860;4.382;2022-10-16T09:34:36;0.68;;;0.60;;
34136;SDS011;20414;50.860;4.382;2022-10-16T09:37:12;0.60;;;0.40;;
34136;SDS011;20414;50.860;4.382;2022-10-16T09:39:49;0.93;;;0.40;;
34136;SDS011;20414;50.860;4.382;2022-10-16T09:42:19;0.47;;;0.47;;
34136;SDS011;20414;50.860;4.382;2022-10-16T09:44:55;0.50;;;0.50;;
34136;SDS011;20414;50.860;4.382;2022-10-16T09:47:23;0.50;;;0.50;;
34136;SDS011;20414;50.860;4.382;2022-10-16T09:49:55;0.88;;;0.60;;
34136;SDS011;20414;50.860;4.382;2022-10-16T09:52:24;0.93;;;0.38;;
34136;SDS011;20414;50.860;4.382;2022-10-16T09:54:51;0.50;;;0.50;;
34136;SDS011;20414;50.860;4.382;2022-10-16T09:57:19;0.68;;;0.50;;
34136;SDS011;20414;50.860;4.382;2022-10-16T09:59:52;0.70;;;0.60;;
34136;SDS011;20414;50.860;4.382;2022-10-16T10:02:23;1.38;;;0.50;;
34136;SDS011;20414;50.860;4.382;2022-10-16T10:04:55;0.45;;;0.40;;
34136;SDS011;20414;50.860;4.382;2022-10-16T10:07:41;0.50;;;0.40;;
34136;SDS011;20414;50.860;4.382;2022-10-16T10:10:22;0.68;;;0.40;;
34136;SDS011;20414;50.860;4.382;2022-10-16T10:12:50;0.75;;;0.60;;
34136;SDS011;20414;50.860;4.382;2022-10-16T10:15:16;0.40;;;0.40;;
34136;SDS011;20414;50.860;4.382;2022-10-16T10:17:55;0.60;;;0.45;;
34136;SDS011;20414;50.860;4.382;2022-10-16T10:20:26;0.90;;;0.50;;
34136;SDS011;20414;50.860;4.382;2022-10-16T10:23:24;0.60;;;0.50;;
34136;SDS011;20414;50.860;4.382;2022-10-16T10:25:56;0.75;;;0.50;;
34136;SDS011;20414;50.860;4.382;2022-10-16T10:31:26;0.60;;;0.60;;
34136;SDS011;20414;50.860;4.382;2022-10-16T10:34:11;1.13;;;0.47;;
34136;SDS011;20414;50.860;4.382;2022-10-16T10:36:45;0.45;;;0.35;;
34136;SDS011;20414;50.860;4.382;2022-10-16T10:39:30;0.50;;;0.50;;
34136;SDS011;20414;50.860;4.382;2022-10-16T10:50:57;0.30;;;0.30;;
34136;SDS011;20414;50.860;4.382;2022-10-16T10:53:42;1.30;;;0.50;;
34136;SDS011;20414;50.860;4.382;2022-10-16T10:56:20;0.73;;;0.43;;
34136;SDS011;20414;50.860;4.382;2022-10-16T11:01:52;0.98;;;0.40;;
34136;SDS011;20414;50.860;4.382;2022-10-16T11:05:07;0.70;;;0.50;;
34136;SDS011;20414;50.860;4.382;2022-10-16T11:07:58;1.23;;;0.50;;
34136;SDS011;20414;50.860;4.382;2022-10-16T11:10:44;0.52;;;0.50;;
34136;SDS011;20414;50.860;4.382;2022-10-16T11:16:25;1.13;;;0.40;;
34136;SDS011;20414;50.860;4.382;2022-10-16T11:21:38;0.82;;;0.40;;
34136;SDS011;20414;50.860;4.382;2022-10-16T11:24:20;0.98;;;0.40;;
34136;SDS011;20414;50.860;4.382;2022-10-16T11:26:59;0.70;;;0.40;;
34136;SDS011;20414;50.860;4.382;2022-10-16T11:29:30;0.80;;;0.40;;
34136;SDS011;20414;50.860;4.382;2022-10-16T11:31:57;2.55;;;0.50;;
34136;SDS011;20414;50.860;4.382;2022-10-16T11:37:12;2.05;;;0.60;;
34136;SDS011;20414;50.860;4.382;2022-10-16T11:39:42;0.60;;;0.52;;
34136;SDS011;20414;50.860;4.382;2022-10-16T11:44:57;1.42;;;0.50;;
34136;SDS011;20414;50.860;4.382;2022-10-16T11:47:48;4.75;;;0.60;;
34136;SDS011;20414;50.860;4.382;2022-10-16T11:52:55;0.80;;;0.47;;
34136;SDS011;20414;50.860;4.382;2022-10-16T11:55:36;1.90;;;0.40;;
34136;SDS011;20414;50.860;4.382;2022-10-16T11:58:09;2.20;;;0.60;;
34136;SDS011;20414;50.860;4.382;2022-10-16T12:01:01;1.13;;;0.57;;
34136;SDS011;20414;50.860;4.382;2022-10-16T12:04:05;1.40;;;0.40;;
34136;SDS011;20414;50.860;4.382;2022-10-16T12:06:46;1.48;;;0.57;;
34136;SDS011;20414;50.860;4.382;2022-10-16T12:09:29;2.25;;;0.47;;
34136;SDS011;20414;50.860;4.382;2022-10-16T12:11:57;1.10;;;0.47;;
34136;SDS011;20414;50.860;4.382;2022-10-16T12:17:04;1.33;;;0.65;;
34136;SDS011;20414;50.860;4.382;2022-10-16T12:19:59;0.70;;;0.60;;
34136;SDS011;20414;50.860;4.382;2022-10-16T12:22:40;0.70;;;0.43;;
34136;SDS011;20414;50.860;4.382;2022-10-16T12:25:20;1.45;;;0.40;;
34136;SDS011;20414;50.860;4.382;2022-10-16T12:27:59;0.85;;;0.50;;
34136;SDS011;20414;50.860;4.382;2022-10-16T12:30:28;0.70;;;0.47;;
34136;SDS011;20414;50.860;4.382;2022-10-16T12:32:57;1.00;;;0.50;;
34136;SDS011;20414;50.860;4.382;2022-10-16T12:35:28;1.95;;;0.50;;
34136;SDS011;20414;50.860;4.382;2022-10-16T12:38:07;1.63;;;0.50;;
34136;SDS011;20414;50.860;4.382;2022-10-16T12:40:43;1.92;;;0.40;;
34136;SDS011;20414;50.860;4.382;2022-10-16T12:46:02;1.00;;;0.45;;
34136;SDS011;20414;50.860;4.382;2022-10-16T12:48:48;0.85;;;0.47;;
34136;SDS011;20414;50.860;4.382;2022-10-16T12:54:03;0.75;;;0.40;;
34136;SDS011;20414;50.860;4.382;2022-10-16T13:13:13;1.23;;;0.50;;
34136;SDS011;20414;50.860;4.382;2022-10-16T13:28:11;1.15;;;0.47;;
34136;SDS011;20414;50.860;4.382;2022-10-16T13:33:37;0.45;;;0.25;;
34136;SDS011;20414;50.860;4.382;2022-10-16T13:36:05;1.10;;;0.40;;
34136;SDS011;20414;50.860;4.382;2022-10-16T13:38:35;0.70;;;0.47;;
34136;SDS011;20414;50.860;4.382;2022-10-16T13:43:32;0.90;;;0.57;;
34136;SDS011;20414;50.860;4.382;2022-10-16T13:46:02;0.70;;;0.50;;
34136;SDS011;20414;50.860;4.382;2022-10-16T13:48:29;0.32;;;0.30;;
34136;SDS011;20414;50.860;4.382;2022-10-16T13:51:05;0.70;;;0.35;;
34136;SDS011;20414;50.860;4.382;2022-10-16T13:53:34;1.23;;;0.65;;
34136;SDS011;20414;50.860;4.382;2022-10-16T13:56:04;0.50;;;0.40;;
34136;SDS011;20414;50.860;4.382;2022-10-16T13:58:32;0.65;;;0.30;;
34136;SDS011;20414;50.860;4.382;2022-10-16T14:00:59;0.47;;;0.30;;
34136;SDS011;20414;50.860;4.382;2022-10-16T14:03:27;0.88;;;0.50;;
34136;SDS011;20414;50.860;4.382;2022-10-16T14:05:56;0.60;;;0.40;;
34136;SDS011;20414;50.860;4.382;2022-10-16T14:08:26;0.75;;;0.40;;
34136;SDS011;20414;50.860;4.382;2022-10-16T14:10:55;0.40;;;0.28;;
34136;SDS011;20414;50.860;4.382;2022-10-16T14:13:28;0.30;;;0.30;;
34136;SDS011;20414;50.860;4.382;2022-10-16T14:15:56;1.10;;;0.50;;
34136;SDS011;20414;50.860;4.382;2022-10-16T14:18:25;0.55;;;0.38;;
34136;SDS011;20414;50.860;4.382;2022-10-16T14:20:52;0.90;;;0.50;;
34136;SDS011;20414;50.860;4.382;2022-10-16T14:23:31;0.75;;;0.38;;
34136;SDS011;20414;50.860;4.382;2022-10-16T14:28:32;0.70;;;0.30;;
34136;SDS011;20414;50.860;4.382;2022-10-16T14:30:58;0.70;;;0.40;;
34136;SDS011;20414;50.860;4.382;2022-10-16T14:38:29;0.65;;;0.35;;
34136;SDS011;20414;50.860;4.382;2022-10-16T14:40:56;1.13;;;0.40;;
34136;SDS011;20414;50.860;4.382;2022-10-16T14:43:26;0.73;;;0.32;;
34136;SDS011;20414;50.860;4.382;2022-10-16T14:46:17;0.45;;;0.30;;
34136;SDS011;20414;50.860;4.382;2022-10-16T14:48:48;0.55;;;0.30;;
34136;SDS011;20414;50.860;4.382;2022-10-16T14:51:16;0.52;;;0.40;;
34136;SDS011;20414;50.860;4.382;2022-10-16T14:53:43;0.50;;;0.40;;
34136;SDS011;20414;50.860;4.382;2022-10-16T14:56:17;1.13;;;0.40;;
34136;SDS011;20414;50.860;4.382;2022-10-16T14:58:44;0.88;;;0.35;;
34136;SDS011;20414;50.860;4.382;2022-10-16T15:01:10;0.63;;;0.38;;
34136;SDS011;20414;50.860;4.382;2022-10-16T15:03:37;0.40;;;0.30;;
34136;SDS011;20414;50.860;4.382;2022-10-16T15:06:03;1.48;;;0.30;;
34136;SDS011;20414;50.860;4.382;2022-10-16T15:08:34;0.60;;;0.30;;
34136;SDS011;20414;50.860;4.382;2022-10-16T15:11:00;0.40;;;0.40;;
34136;SDS011;20414;50.860;4.382;2022-10-16T15:13:25;0.30;;;0.22;;
34136;SDS011;20414;50.860;4.382;2022-10-16T15:15:51;0.30;;;0.20;;
34136;SDS011;20414;50.860;4.382;2022-10-16T15:18:17;0.52;;;0.40;;
34136;SDS011;20414;50.860;4.382;2022-10-16T15:20:48;0.55;;;0.22;;
34136;SDS011;20414;50.860;4.382;2022-10-16T15:23:16;0.90;;;0.30;;
34136;SDS011;20414;50.860;4.382;2022-10-16T15:28:11;0.40;;;0.30;;
34136;SDS011;20414;50.860;4.382;2022-10-16T15:30:37;0.40;;;0.30;;
34136;SDS011;20414;50.860;4.382;2022-10-16T15:33:03;0.63;;;0.30;;
34136;SDS011;20414;50.860;4.382;2022-10-16T15:35:31;0.85;;;0.30;;
34136;SDS011;20414;50.860;4.382;2022-10-16T15:37:57;0.70;;;0.40;;
34136;SDS011;20414;50.860;4.382;2022-10-16T15:40:23;0.75;;;0.40;;
34136;SDS011;20414;50.860;4.382;2022-10-16T15:42:48;0.30;;;0.30;;
34136;SDS011;20414;50.860;4.382;2022-10-16T15:45:15;0.65;;;0.43;;
34136;SDS011;20414;50.860;4.382;2022-10-16T15:47:41;0.90;;;0.40;;
34136;SDS011;20414;50.860;4.382;2022-10-16T15:50:09;0.45;;;0.30;;
34136;SDS011;20414;50.860;4.382;2022-10-16T15:52:36;0.70;;;0.40;;
34136;SDS011;20414;50.860;4.382;2022-10-16T15:55:04;0.82;;;0.40;;
34136;SDS011;20414;50.860;4.382;2022-10-16T15:57:31;0.82;;;0.40;;
34136;SDS011;20414;50.860;4.382;2022-10-16T15:59:56;0.40;;;0.38;;
34136;SDS011;20414;50.860;4.382;2022-10-16T16:02:22;0.70;;;0.30;;
34136;SDS011;20414;50.860;4.382;2022-10-16T16:04:50;1.02;;;0.40;;
34136;SDS011;20414;50.860;4.382;2022-10-16T16:07:15;0.25;;;0.20;;
34136;SDS011;20414;50.860;4.382;2022-10-16T16:09:41;0.63;;;0.38;;
34136;SDS011;20414;50.860;4.382;2022-10-16T16:12:07;0.22;;;0.20;;
34136;SDS011;20414;50.860;4.382;2022-10-16T16:14:32;0.35;;;0.25;;
34136;SDS011;20414;50.860;4.382;2022-10-16T16:16:58;0.57;;;0.30;;
34136;SDS011;20414;50.860;4.382;2022-10-16T16:19:23;0.70;;;0.32;;
34136;SDS011;20414;50.860;4.382;2022-10-16T16:21:49;0.50;;;0.28;;
34136;SDS011;20414;50.860;4.382;2022-10-16T16:24:16;0.60;;;0.30;;
34136;SDS011;20414;50.860;4.382;2022-10-16T16:26:41;0.73;;;0.30;;
34136;SDS011;20414;50.860;4.382;2022-10-16T16:29:14;0.73;;;0.40;;
34136;SDS011;20414;50.860;4.382;2022-10-16T16:31:41;0.57;;;0.40;;
34136;SDS011;20414;50.860;4.382;2022-10-16T16:34:07;0.30;;;0.20;;
34136;SDS011;20414;50.860;4.382;2022-10-16T16:36:33;0.50;;;0.30;;
34136;SDS011;20414;50.860;4.382;2022-10-16T16:39:00;1.17;;;0.30;;
34136;SDS011;20414;50.860;4.382;2022-10-16T16:41:27;0.43;;;0.30;;
34136;SDS011;20414;50.860;4.382;2022-10-16T16:43:55;0.20;;;0.20;;
34136;SDS011;20414;50.860;4.382;2022-10-16T16:46:21;0.52;;;0.32;;
34136;SDS011;20414;50.860;4.382;2022-10-16T16:48:47;0.20;;;0.20;;
34136;SDS011;20414;50.860;4.382;2022-10-16T16:51:15;0.35;;;0.30;;
34136;SDS011;20414;50.860;4.382;2022-10-16T16:53:45;0.35;;;0.35;;
34136;SDS011;20414;50.860;4.382;2022-10-16T16:56:12;0.40;;;0.30;;
34136;SDS011;20414;50.860;4.382;2022-10-16T16:58:38;0.20;;;0.20;;
34136;SDS011;20414;50.860;4.382;2022-10-16T17:01:04;0.57;;;0.38;;
34136;SDS011;20414;50.860;4.382;2022-10-16T17:03:31;0.57;;;0.30;;
34136;SDS011;20414;50.860;4.382;2022-10-16T17:06:05;0.75;;;0.30;;
34136;SDS011;20414;50.860;4.382;2022-10-16T17:08:32;0.43;;;0.30;;
34136;SDS011;20414;50.860;4.382;2022-10-16T17:11:00;0.30;;;0.20;;
34136;SDS011;20414;50.860;4.382;2022-10-16T17:13:27;0.50;;;0.30;;
34136;SDS011;20414;50.860;4.382;2022-10-16T17:15:54;0.30;;;0.30;;